Hidden Valley, PA (15502)

12:16 AM EST on December 21, 2014 (GMT -0500)
Somerset Twp 3 | Change Station
CLOSE
Current Station
Personal Weather Station
Location: Somerset, PA
Elevation: 2241 ft
Nearby Weather Stations

Elev 2241 ft 40.02 °N, 79.10 °W | Updated 9 seconds ago

Overcast
Overcast
24.1 °F
Feels Like 24 °F
N
0.0
Wind Variable Wind from West
Gusts 1.6 mph

Today
High -- | Low -- °F
--% Chance of Precip.
Yesterday
High -- | Low -- °F
Precip. -- in
7:34 AM 4:54 PM
Waning Crescent, 1% visible
Pressure 30.26 in
Visibility 7.0 miles
Clouds Overcast 2100 ft
Windchill 24 °F
Dew Point 20 °F
Humidity 85%
Rainfall 0.00 in
Snow Depth Not available.
UV 0 out of 12
Pollen .10 out of 12
Air Quality Not available.
Flu Activity Not available.
METAR KJST 210454Z AUTO 00000KT 7SM OVC021 M04/M08 A3017 RMK AO2 SLP247 T10441078 410171072

More Conditions Fewer Conditions

Pressure 30.26 in
Visibility 7.0 miles
Clouds Overcast 2100 ft
Windchill 24 °F
Dew Point 20 °F
Humidity 85%
Rainfall 0.00 in
Snow Depth Not available.
UV 0 out of 12
Pollen .10 out of 12
Air Quality Not available.
Flu Activity Not available.
METAR KJST 210454Z AUTO 00000KT 7SM OVC021 M04/M08 A3017 RMK AO2 SLP247 T10441078 410171072

More Conditions Fewer Conditions

10-Day Weather Forecast

Almanac

Astronomy

Dec. 21, 2014 Rise Set
Actual Time
Civil Twilight
Nautical Twilight
Astronomical Twilight
Moon
Length of Visible Light
Length of Day
Tomorrow will be .
, % of the Moon is Illuminated

Today's Extremes

State Highs State Lows

Community

WunderPhotos

Upload Photos

1,779,358 photos uploaded!

WunderBlogs® & News

Nearby

Air Quality

  Air Quality AQ Index Pollutant
Not available.

Snow Depth

Station Depth Elevation

Earthquake Activity

City Distance Mag. Time & Date
Minimum magnitude displayed is 2.5.

Coastal Water Temperatures

Place Temperature

Nearby Weather Stations